sensor_id;sensor_type;location;lat;lon;timestamp;temperature;humidity
3980;DHT22;2004;52.452;13.120;2022-08-19T00:03:09;21.70;99.90
3980;DHT22;2004;52.452;13.120;2022-08-19T00:11:00;21.70;99.90
3980;DHT22;2004;52.452;13.120;2022-08-19T00:18:50;21.70;99.90
3980;DHT22;2004;52.452;13.120;2022-08-19T00:26:42;21.70;99.90
3980;DHT22;2004;52.452;13.120;2022-08-19T00:34:32;21.60;99.90
3980;DHT22;2004;52.452;13.120;2022-08-19T00:42:23;21.60;99.90
3980;DHT22;2004;52.452;13.120;2022-08-19T00:50:17;21.60;99.90
3980;DHT22;2004;52.452;13.120;2022-08-19T00:58:13;21.60;99.90
3980;DHT22;2004;52.452;13.120;2022-08-19T01:06:05;21.50;99.90
3980;DHT22;2004;52.452;13.120;2022-08-19T01:13:56;21.40;99.90
3980;DHT22;2004;52.452;13.120;2022-08-19T01:21:54;21.40;99.90
3980;DHT22;2004;52.452;13.120;2022-08-19T01:29:46;21.40;99.90
3980;DHT22;2004;52.452;13.120;2022-08-19T01:37:55;21.30;99.90
3980;DHT22;2004;52.452;13.120;2022-08-19T01:45:46;21.30;99.90
3980;DHT22;2004;52.452;13.120;2022-08-19T01:53:38;21.20;99.90
3980;DHT22;2004;52.452;13.120;2022-08-19T02:01:29;21.20;99.90
3980;DHT22;2004;52.452;13.120;2022-08-19T02:09:22;21.10;99.90
3980;DHT22;2004;52.452;13.120;2022-08-19T02:17:12;21.10;99.90
3980;DHT22;2004;52.452;13.120;2022-08-19T02:25:03;21.00;99.90
3980;DHT22;2004;52.452;13.120;2022-08-19T02:32:55;20.90;99.90
3980;DHT22;2004;52.452;13.120;2022-08-19T02:40:50;20.70;99.90
3980;DHT22;2004;52.452;13.120;2022-08-19T02:48:42;20.60;99.90
3980;DHT22;2004;52.452;13.120;2022-08-19T02:56:38;20.50;99.90
3980;DHT22;2004;52.452;13.120;2022-08-19T03:04:29;20.40;99.90
3980;DHT22;2004;52.452;13.120;2022-08-19T03:12:20;20.40;99.90
3980;DHT22;2004;52.452;13.120;2022-08-19T03:20:10;20.40;99.90
3980;DHT22;2004;52.452;13.120;2022-08-19T03:28:01;20.40;99.90
3980;DHT22;2004;52.452;13.120;2022-08-19T03:43:55;20.40;99.90
3980;DHT22;2004;52.452;13.120;2022-08-19T03:51:48;20.40;99.90
3980;DHT22;2004;52.452;13.120;2022-08-19T03:59:39;20.40;99.90
3980;DHT22;2004;52.452;13.120;2022-08-19T04:07:30;20.40;99.90
3980;DHT22;2004;52.452;13.120;2022-08-19T04:15:20;20.30;99.90
3980;DHT22;2004;52.452;13.120;2022-08-19T04:23:12;20.30;99.90
3980;DHT22;2004;52.452;13.120;2022-08-19T04:31:03;20.30;99.90
3980;DHT22;2004;52.452;13.120;2022-08-19T04:38:56;20.30;99.90
3980;DHT22;2004;52.452;13.120;2022-08-19T04:46:48;20.20;99.90
3980;DHT22;2004;52.452;13.120;2022-08-19T04:54:39;20.20;99.90
3980;DHT22;2004;52.452;13.120;2022-08-19T05:02:30;20.20;99.90
3980;DHT22;2004;52.452;13.120;2022-08-19T05:10:20;20.20;99.90
3980;DHT22;2004;52.452;13.120;2022-08-19T05:18:11;20.20;99.90
3980;DHT22;2004;52.452;13.120;2022-08-19T05:26:20;20.30;99.90
3980;DHT22;2004;52.452;13.120;2022-08-19T05:34:11;20.30;99.90
3980;DHT22;2004;52.452;13.120;2022-08-19T05:42:05;20.40;99.90
3980;DHT22;2004;52.452;13.120;2022-08-19T05:49:57;20.50;99.90
3980;DHT22;2004;52.452;13.120;2022-08-19T05:57:48;20.50;99.90
3980;DHT22;2004;52.452;13.120;2022-08-19T06:05:38;20.60;99.90
3980;DHT22;2004;52.452;13.120;2022-08-19T06:13:29;20.70;99.90
3980;DHT22;2004;52.452;13.120;2022-08-19T06:21:21;20.80;99.90
3980;DHT22;2004;52.452;13.120;2022-08-19T06:29:14;20.90;99.90
3980;DHT22;2004;52.452;13.120;2022-08-19T06:37:05;21.00;99.90
3980;DHT22;2004;52.452;13.120;2022-08-19T06:45:00;21.10;99.90
3980;DHT22;2004;52.452;13.120;2022-08-19T06:52:53;21.10;99.90
3980;DHT22;2004;52.452;13.120;2022-08-19T07:00:44;21.20;99.90
3980;DHT22;2004;52.452;13.120;2022-08-19T07:08:35;21.30;99.90
3980;DHT22;2004;52.452;13.120;2022-08-19T07:16:26;21.30;99.90
3980;DHT22;2004;52.452;13.120;2022-08-19T07:24:18;21.40;99.90
3980;DHT22;2004;52.452;13.120;2022-08-19T07:32:09;21.40;99.90
3980;DHT22;2004;52.452;13.120;2022-08-19T07:40:03;21.50;99.90
3980;DHT22;2004;52.452;13.120;2022-08-19T07:47:54;21.50;99.90
3980;DHT22;2004;52.452;13.120;2022-08-19T07:55:45;21.60;99.90
3980;DHT22;2004;52.452;13.120;2022-08-19T08:03:36;21.60;99.90
3980;DHT22;2004;52.452;13.120;2022-08-19T08:11:49;21.60;99.90
3980;DHT22;2004;52.452;13.120;2022-08-19T08:19:40;21.70;99.90
3980;DHT22;2004;52.452;13.120;2022-08-19T08:27:31;21.70;99.90
3980;DHT22;2004;52.452;13.120;2022-08-19T08:35:25;21.70;99.90
3980;DHT22;2004;52.452;13.120;2022-08-19T08:43:28;21.80;99.90
3980;DHT22;2004;52.452;13.120;2022-08-19T08:51:25;21.80;99.90
3980;DHT22;2004;52.452;13.120;2022-08-19T08:59:24;21.90;99.90
3980;DHT22;2004;52.452;13.120;2022-08-19T09:07:43;22.00;99.90
3980;DHT22;2004;52.452;13.120;2022-08-19T09:15:46;22.00;99.90
3980;DHT22;2004;52.452;13.120;2022-08-19T09:23:38;22.10;99.90
3980;DHT22;2004;52.452;13.120;2022-08-19T09:31:29;22.10;99.90
3980;DHT22;2004;52.452;13.120;2022-08-19T09:39:20;22.20;99.90
3980;DHT22;2004;52.452;13.120;2022-08-19T09:47:12;22.20;99.90
3980;DHT22;2004;52.452;13.120;2022-08-19T09:55:04;22.30;99.90
3980;DHT22;2004;52.452;13.120;2022-08-19T10:02:55;22.30;99.90
3980;DHT22;2004;52.452;13.120;2022-08-19T10:10:46;22.30;99.90
3980;DHT22;2004;52.452;13.120;2022-08-19T10:18:37;22.30;99.90
3980;DHT22;2004;52.452;13.120;2022-08-19T10:26:30;22.30;99.90
3980;DHT22;2004;52.452;13.120;2022-08-19T10:34:21;22.20;99.90
3980;DHT22;2004;52.452;13.120;2022-08-19T10:42:11;22.20;99.90
3980;DHT22;2004;52.452;13.120;2022-08-19T10:50:03;22.20;99.90
3980;DHT22;2004;52.452;13.120;2022-08-19T10:58:14;22.30;99.90
3980;DHT22;2004;52.452;13.120;2022-08-19T11:06:08;22.40;99.90
3980;DHT22;2004;52.452;13.120;2022-08-19T11:13:58;22.60;99.90
3980;DHT22;2004;52.452;13.120;2022-08-19T11:21:50;22.60;99.90
3980;DHT22;2004;52.452;13.120;2022-08-19T11:29:42;22.50;99.90
3980;DHT22;2004;52.452;13.120;2022-08-19T11:37:32;22.40;99.90
3980;DHT22;2004;52.452;13.120;2022-08-19T11:45:28;22.30;99.90
3980;DHT22;2004;52.452;13.120;2022-08-19T11:53:19;22.30;99.90
3980;DHT22;2004;52.452;13.120;2022-08-19T12:01:12;22.40;99.90
3980;DHT22;2004;52.452;13.120;2022-08-19T12:09:06;22.40;99.90
3980;DHT22;2004;52.452;13.120;2022-08-19T12:16:58;22.50;99.90
3980;DHT22;2004;52.452;13.120;2022-08-19T12:24:48;22.50;99.90
3980;DHT22;2004;52.452;13.120;2022-08-19T12:32:41;22.50;99.90
3980;DHT22;2004;52.452;13.120;2022-08-19T12:40:31;22.50;99.90
3980;DHT22;2004;52.452;13.120;2022-08-19T12:48:22;22.40;99.90
3980;DHT22;2004;52.452;13.120;2022-08-19T12:56:13;22.30;99.90
3980;DHT22;2004;52.452;13.120;2022-08-19T13:04:04;22.40;99.90
3980;DHT22;2004;52.452;13.120;2022-08-19T13:11:55;22.30;99.90
3980;DHT22;2004;52.452;13.120;2022-08-19T13:19:47;22.30;99.90
3980;DHT22;2004;52.452;13.120;2022-08-19T13:27:38;22.30;99.90
3980;DHT22;2004;52.452;13.120;2022-08-19T13:35:28;22.40;99.90
3980;DHT22;2004;52.452;13.120;2022-08-19T13:43:21;22.40;99.90
3980;DHT22;2004;52.452;13.120;2022-08-19T13:51:12;22.30;99.90
3980;DHT22;2004;52.452;13.120;2022-08-19T13:59:03;22.30;99.90
3980;DHT22;2004;52.452;13.120;2022-08-19T14:06:53;22.40;99.90
3980;DHT22;2004;52.452;13.120;2022-08-19T14:14:44;22.40;99.90
3980;DHT22;2004;52.452;13.120;2022-08-19T14:22:35;22.50;99.90
3980;DHT22;2004;52.452;13.120;2022-08-19T14:30:29;22.50;99.90
3980;DHT22;2004;52.452;13.120;2022-08-19T14:38:20;22.50;99.90
3980;DHT22;2004;52.452;13.120;2022-08-19T14:46:10;22.50;99.90
3980;DHT22;2004;52.452;13.120;2022-08-19T14:54:02;22.50;99.90
3980;DHT22;2004;52.452;13.120;2022-08-19T15:01:53;22.50;99.90
3980;DHT22;2004;52.452;13.120;2022-08-19T15:09:43;22.40;99.90
3980;DHT22;2004;52.452;13.120;2022-08-19T15:17:34;22.30;99.90
3980;DHT22;2004;52.452;13.120;2022-08-19T15:25:27;22.20;99.90
3980;DHT22;2004;52.452;13.120;2022-08-19T15:33:19;22.10;99.90
3980;DHT22;2004;52.452;13.120;2022-08-19T15:41:25;22.00;99.90
3980;DHT22;2004;52.452;13.120;2022-08-19T15:49:17;21.90;99.90
3980;DHT22;2004;52.452;13.120;2022-08-19T15:57:08;21.90;99.90
3980;DHT22;2004;52.452;13.120;2022-08-19T16:05:13;21.90;99.90
3980;DHT22;2004;52.452;13.120;2022-08-19T16:13:23;21.80;99.90
3980;DHT22;2004;52.452;13.120;2022-08-19T16:21:15;21.80;99.90
3980;DHT22;2004;52.452;13.120;2022-08-19T16:29:09;21.80;99.90
3980;DHT22;2004;52.452;13.120;2022-08-19T16:36:59;21.80;99.90
3980;DHT22;2004;52.452;13.120;2022-08-19T16:44:50;21.70;99.90
3980;DHT22;2004;52.452;13.120;2022-08-19T16:52:40;21.70;99.90
3980;DHT22;2004;52.452;13.120;2022-08-19T17:00:32;21.60;99.90
3980;DHT22;2004;52.452;13.120;2022-08-19T17:08:25;21.60;99.90
3980;DHT22;2004;52.452;13.120;2022-08-19T17:16:22;21.60;99.90
3980;DHT22;2004;52.452;13.120;2022-08-19T17:24:14;21.50;99.90
3980;DHT22;2004;52.452;13.120;2022-08-19T17:32:05;21.50;99.90
3980;DHT22;2004;52.452;13.120;2022-08-19T17:39:57;21.50;99.90
3980;DHT22;2004;52.452;13.120;2022-08-19T17:47:47;21.40;99.90
3980;DHT22;2004;52.452;13.120;2022-08-19T17:55:38;21.30;99.90
3980;DHT22;2004;52.452;13.120;2022-08-19T18:03:28;21.30;99.90
3980;DHT22;2004;52.452;13.120;2022-08-19T18:11:19;21.20;99.90
3980;DHT22;2004;52.452;13.120;2022-08-19T18:19:10;21.10;99.90
3980;DHT22;2004;52.452;13.120;2022-08-19T18:27:00;21.10;99.90
3980;DHT22;2004;52.452;13.120;2022-08-19T18:34:52;21.10;99.90
3980;DHT22;2004;52.452;13.120;2022-08-19T18:42:44;21.10;99.90
3980;DHT22;2004;52.452;13.120;2022-08-19T18:50:58;21.10;99.90
3980;DHT22;2004;52.452;13.120;2022-08-19T18:58:49;21.10;99.90
3980;DHT22;2004;52.452;13.120;2022-08-19T19:06:41;21.10;99.90
3980;DHT22;2004;52.452;13.120;2022-08-19T19:14:34;21.10;99.90
3980;DHT22;2004;52.452;13.120;2022-08-19T19:22:25;21.10;99.90
3980;DHT22;2004;52.452;13.120;2022-08-19T19:30:15;21.00;99.90
3980;DHT22;2004;52.452;13.120;2022-08-19T19:38:06;21.00;99.90
3980;DHT22;2004;52.452;13.120;2022-08-19T19:45:57;21.00;99.90
3980;DHT22;2004;52.452;13.120;2022-08-19T19:53:48;21.00;99.90
3980;DHT22;2004;52.452;13.120;2022-08-19T20:01:39;21.10;99.90
3980;DHT22;2004;52.452;13.120;2022-08-19T20:09:35;21.00;99.90
3980;DHT22;2004;52.452;13.120;2022-08-19T20:17:25;21.00;99.90
3980;DHT22;2004;52.452;13.120;2022-08-19T20:25:18;21.00;99.90
3980;DHT22;2004;52.452;13.120;2022-08-19T20:33:09;20.90;99.90
3980;DHT22;2004;52.452;13.120;2022-08-19T20:41:01;20.90;99.90
3980;DHT22;2004;52.452;13.120;2022-08-19T20:48:51;20.90;99.90
3980;DHT22;2004;52.452;13.120;2022-08-19T20:56:42;20.90;99.90
3980;DHT22;2004;52.452;13.120;2022-08-19T21:04:33;20.90;99.90
3980;DHT22;2004;52.452;13.120;2022-08-19T21:12:23;20.80;99.90
3980;DHT22;2004;52.452;13.120;2022-08-19T21:20:15;20.80;99.90
3980;DHT22;2004;52.452;13.120;2022-08-19T21:28:06;20.80;99.90
3980;DHT22;2004;52.452;13.120;2022-08-19T21:35:56;20.80;99.90
3980;DHT22;2004;52.452;13.120;2022-08-19T21:43:47;20.80;99.90
3980;DHT22;2004;52.452;13.120;2022-08-19T21:51:38;20.80;99.90
3980;DHT22;2004;52.452;13.120;2022-08-19T21:59:29;20.80;99.90
3980;DHT22;2004;52.452;13.120;2022-08-19T22:07:20;20.80;99.90
3980;DHT22;2004;52.452;13.120;2022-08-19T22:15:13;20.80;99.90
3980;DHT22;2004;52.452;13.120;2022-08-19T22:23:05;20.80;99.90
3980;DHT22;2004;52.452;13.120;2022-08-19T22:30:56;20.80;99.90
3980;DHT22;2004;52.452;13.120;2022-08-19T22:38:47;20.80;99.90
3980;DHT22;2004;52.452;13.120;2022-08-19T22:46:38;20.80;99.90
3980;DHT22;2004;52.452;13.120;2022-08-19T22:54:28;20.80;99.90
3980;DHT22;2004;52.452;13.120;2022-08-19T23:02:22;20.70;99.90
3980;DHT22;2004;52.452;13.120;2022-08-19T23:10:13;20.70;99.90
3980;DHT22;2004;52.452;13.120;2022-08-19T23:18:03;20.70;99.90
3980;DHT22;2004;52.452;13.120;2022-08-19T23:25:56;20.60;99.90
3980;DHT22;2004;52.452;13.120;2022-08-19T23:33:47;20.60;99.90
3980;DHT22;2004;52.452;13.120;2022-08-19T23:41:37;20.60;99.90
3980;DHT22;2004;52.452;13.120;2022-08-19T23:49:28;20.60;99.90
3980;DHT22;2004;52.452;13.120;2022-08-19T23:57:20;20.60;99.90
